sensor_id;sensor_type;location;lat;lon;timestamp;P1;durP1;ratioP1;P2;durP2;ratioP2
75061;SDS011;63641;46.526;24.612;2023-05-24T00:00:02;4.97;;;4.40;;
75061;SDS011;63641;46.526;24.612;2023-05-24T00:02:31;4.75;;;4.35;;
75061;SDS011;63641;46.526;24.612;2023-05-24T00:04:58;8.13;;;4.60;;
75061;SDS011;63641;46.526;24.612;2023-05-24T00:07:26;5.35;;;4.07;;
75061;SDS011;63641;46.526;24.612;2023-05-24T00:09:53;4.70;;;4.30;;
75061;SDS011;63641;46.526;24.612;2023-05-24T00:12:20;4.38;;;3.97;;
75061;SDS011;63641;46.526;24.612;2023-05-24T00:14:47;4.53;;;4.13;;
75061;SDS011;63641;46.526;24.612;2023-05-24T00:17:13;7.20;;;4.20;;
75061;SDS011;63641;46.526;24.612;2023-05-24T00:19:40;4.80;;;4.22;;
75061;SDS011;63641;46.526;24.612;2023-05-24T00:22:07;6.15;;;4.60;;
75061;SDS011;63641;46.526;24.612;2023-05-24T00:24:34;4.72;;;4.18;;
75061;SDS011;63641;46.526;24.612;2023-05-24T00:27:01;9.60;;;4.10;;
75061;SDS011;63641;46.526;24.612;2023-05-24T00:29:28;4.63;;;4.13;;
75061;SDS011;63641;46.526;24.612;2023-05-24T00:31:57;4.35;;;3.95;;
75061;SDS011;63641;46.526;24.612;2023-05-24T00:34:24;4.45;;;4.05;;
75061;SDS011;63641;46.526;24.612;2023-05-24T00:36:51;4.43;;;4.03;;
75061;SDS011;63641;46.526;24.612;2023-05-24T00:39:17;4.97;;;4.07;;
75061;SDS011;63641;46.526;24.612;2023-05-24T00:41:44;5.30;;;4.07;;
75061;SDS011;63641;46.526;24.612;2023-05-24T00:44:11;4.47;;;3.50;;
75061;SDS011;63641;46.526;24.612;2023-05-24T00:46:38;4.30;;;3.90;;
75061;SDS011;63641;46.526;24.612;2023-05-24T00:49:05;4.95;;;4.43;;
75061;SDS011;63641;46.526;24.612;2023-05-24T00:51:32;4.68;;;4.18;;
75061;SDS011;63641;46.526;24.612;2023-05-24T00:54:00;4.50;;;4.10;;
75061;SDS011;63641;46.526;24.612;2023-05-24T00:56:27;4.88;;;3.83;;
75061;SDS011;63641;46.526;24.612;2023-05-24T00:58:54;5.60;;;4.45;;
75061;SDS011;63641;46.526;24.612;2023-05-24T01:01:21;4.30;;;3.90;;
75061;SDS011;63641;46.526;24.612;2023-05-24T01:03:52;4.88;;;4.20;;
75061;SDS011;63641;46.526;24.612;2023-05-24T01:06:20;5.28;;;4.47;;
75061;SDS011;63641;46.526;24.612;2023-05-24T01:08:53;4.13;;;3.65;;
75061;SDS011;63641;46.526;24.612;2023-05-24T01:11:44;4.82;;;3.92;;
75061;SDS011;63641;46.526;24.612;2023-05-24T01:15:17;5.47;;;3.58;;
75061;SDS011;63641;46.526;24.612;2023-05-24T01:19:57;3.72;;;3.42;;
75061;SDS011;63641;46.526;24.612;2023-05-24T01:28:27;4.35;;;3.95;;
75061;SDS011;63641;46.526;24.612;2023-05-24T01:30:54;4.15;;;3.60;;
75061;SDS011;63641;46.526;24.612;2023-05-24T01:33:21;5.60;;;3.75;;
75061;SDS011;63641;46.526;24.612;2023-05-24T01:35:48;4.70;;;3.67;;
75061;SDS011;63641;46.526;24.612;2023-05-24T01:38:15;4.35;;;3.95;;
75061;SDS011;63641;46.526;24.612;2023-05-24T01:40:41;7.68;;;3.88;;
75061;SDS011;63641;46.526;24.612;2023-05-24T01:43:13;5.00;;;3.92;;
75061;SDS011;63641;46.526;24.612;2023-05-24T01:45:51;4.13;;;3.50;;
75061;SDS011;63641;46.526;24.612;2023-05-24T01:51:13;4.50;;;4.10;;
75061;SDS011;63641;46.526;24.612;2023-05-24T01:53:44;5.15;;;3.58;;
75061;SDS011;63641;46.526;24.612;2023-05-24T01:56:12;4.32;;;3.92;;
75061;SDS011;63641;46.526;24.612;2023-05-24T01:58:42;4.28;;;3.88;;
75061;SDS011;63641;46.526;24.612;2023-05-24T02:01:11;4.20;;;3.80;;
75061;SDS011;63641;46.526;24.612;2023-05-24T02:03:41;4.32;;;3.83;;
75061;SDS011;63641;46.526;24.612;2023-05-24T02:06:07;4.30;;;3.92;;
75061;SDS011;63641;46.526;24.612;2023-05-24T02:08:36;3.92;;;3.63;;
75061;SDS011;63641;46.526;24.612;2023-05-24T02:11:03;5.63;;;4.45;;
75061;SDS011;63641;46.526;24.612;2023-05-24T02:13:29;4.47;;;3.67;;
75061;SDS011;63641;46.526;24.612;2023-05-24T02:15:56;3.83;;;3.53;;
75061;SDS011;63641;46.526;24.612;2023-05-24T02:18:23;5.63;;;4.18;;
75061;SDS011;63641;46.526;24.612;2023-05-24T02:20:50;5.00;;;4.05;;
75061;SDS011;63641;46.526;24.612;2023-05-24T02:23:16;4.32;;;3.92;;
75061;SDS011;63641;46.526;24.612;2023-05-24T02:25:43;4.13;;;3.65;;
75061;SDS011;63641;46.526;24.612;2023-05-24T02:28:10;4.07;;;3.67;;
75061;SDS011;63641;46.526;24.612;2023-05-24T02:30:37;4.32;;;3.72;;
75061;SDS011;63641;46.526;24.612;2023-05-24T02:33:03;4.50;;;3.75;;
75061;SDS011;63641;46.526;24.612;2023-05-24T02:35:31;4.30;;;3.90;;
75061;SDS011;63641;46.526;24.612;2023-05-24T02:37:59;5.07;;;4.57;;
75061;SDS011;63641;46.526;24.612;2023-05-24T02:40:26;4.15;;;3.75;;
75061;SDS011;63641;46.526;24.612;2023-05-24T02:42:53;4.30;;;3.90;;
75061;SDS011;63641;46.526;24.612;2023-05-24T02:45:20;4.85;;;3.60;;
75061;SDS011;63641;46.526;24.612;2023-05-24T02:47:50;3.88;;;3.47;;
75061;SDS011;63641;46.526;24.612;2023-05-24T02:50:17;3.83;;;3.50;;
75061;SDS011;63641;46.526;24.612;2023-05-24T02:52:44;4.72;;;4.05;;
75061;SDS011;63641;46.526;24.612;2023-05-24T02:55:10;4.10;;;3.65;;
75061;SDS011;63641;46.526;24.612;2023-05-24T02:57:37;4.00;;;3.60;;
75061;SDS011;63641;46.526;24.612;2023-05-24T03:00:04;3.55;;;3.25;;
75061;SDS011;63641;46.526;24.612;2023-05-24T03:02:36;3.92;;;3.53;;
75061;SDS011;63641;46.526;24.612;2023-05-24T03:05:04;5.43;;;4.20;;
75061;SDS011;63641;46.526;24.612;2023-05-24T03:07:31;4.15;;;3.75;;
75061;SDS011;63641;46.526;24.612;2023-05-24T03:09:59;4.13;;;3.72;;
75061;SDS011;63641;46.526;24.612;2023-05-24T03:12:25;4.28;;;3.90;;
75061;SDS011;63641;46.526;24.612;2023-05-24T03:14:52;4.10;;;3.80;;
75061;SDS011;63641;46.526;24.612;2023-05-24T03:17:19;4.18;;;3.78;;
75061;SDS011;63641;46.526;24.612;2023-05-24T03:19:46;4.15;;;3.85;;
75061;SDS011;63641;46.526;24.612;2023-05-24T03:22:13;4.32;;;3.92;;
75061;SDS011;63641;46.526;24.612;2023-05-24T03:24:40;5.05;;;4.30;;
75061;SDS011;63641;46.526;24.612;2023-05-24T03:27:06;5.78;;;4.53;;
75061;SDS011;63641;46.526;24.612;2023-05-24T03:29:34;5.30;;;4.80;;
75061;SDS011;63641;46.526;24.612;2023-05-24T03:32:00;5.13;;;4.63;;
75061;SDS011;63641;46.526;24.612;2023-05-24T03:34:27;5.93;;;5.20;;
75061;SDS011;63641;46.526;24.612;2023-05-24T03:36:55;5.20;;;4.40;;
75061;SDS011;63641;46.526;24.612;2023-05-24T03:39:22;5.30;;;4.80;;
75061;SDS011;63641;46.526;24.612;2023-05-24T03:41:48;5.30;;;4.80;;
75061;SDS011;63641;46.526;24.612;2023-05-24T03:44:15;5.50;;;5.00;;
75061;SDS011;63641;46.526;24.612;2023-05-24T03:46:42;5.30;;;4.80;;
75061;SDS011;63641;46.526;24.612;2023-05-24T03:49:09;5.95;;;5.20;;
75061;SDS011;63641;46.526;24.612;2023-05-24T03:51:36;5.47;;;4.97;;
75061;SDS011;63641;46.526;24.612;2023-05-24T03:54:02;5.40;;;4.90;;
75061;SDS011;63641;46.526;24.612;2023-05-24T03:56:29;5.30;;;4.80;;
75061;SDS011;63641;46.526;24.612;2023-05-24T03:58:56;5.28;;;4.88;;
75061;SDS011;63641;46.526;24.612;2023-05-24T04:01:26;5.97;;;5.18;;
75061;SDS011;63641;46.526;24.612;2023-05-24T04:03:59;8.43;;;5.13;;
75061;SDS011;63641;46.526;24.612;2023-05-24T04:06:28;5.72;;;4.90;;
75061;SDS011;63641;46.526;24.612;2023-05-24T04:08:55;5.70;;;5.20;;
75061;SDS011;63641;46.526;24.612;2023-05-24T04:11:23;5.70;;;5.10;;
75061;SDS011;63641;46.526;24.612;2023-05-24T04:13:53;5.40;;;4.70;;
75061;SDS011;63641;46.526;24.612;2023-05-24T04:16:21;5.53;;;5.03;;
75061;SDS011;63641;46.526;24.612;2023-05-24T04:18:55;6.90;;;5.13;;
75061;SDS011;63641;46.526;24.612;2023-05-24T04:21:23;6.35;;;5.70;;
75061;SDS011;63641;46.526;24.612;2023-05-24T04:23:50;10.48;;;5.30;;
75061;SDS011;63641;46.526;24.612;2023-05-24T04:26:16;5.93;;;5.32;;
75061;SDS011;63641;46.526;24.612;2023-05-24T04:28:43;6.25;;;5.38;;
75061;SDS011;63641;46.526;24.612;2023-05-24T04:31:14;6.03;;;5.22;;
75061;SDS011;63641;46.526;24.612;2023-05-24T04:33:43;6.28;;;5.68;;
75061;SDS011;63641;46.526;24.612;2023-05-24T04:36:10;6.45;;;5.07;;
75061;SDS011;63641;46.526;24.612;2023-05-24T04:38:37;5.28;;;4.88;;
75061;SDS011;63641;46.526;24.612;2023-05-24T04:41:05;5.68;;;4.93;;
75061;SDS011;63641;46.526;24.612;2023-05-24T04:43:32;5.63;;;5.13;;
75061;SDS011;63641;46.526;24.612;2023-05-24T04:45:59;5.47;;;4.97;;
75061;SDS011;63641;46.526;24.612;2023-05-24T04:48:26;5.55;;;5.05;;
75061;SDS011;63641;46.526;24.612;2023-05-24T04:50:54;7.43;;;5.57;;
75061;SDS011;63641;46.526;24.612;2023-05-24T04:53:23;10.77;;;5.90;;
75061;SDS011;63641;46.526;24.612;2023-05-24T04:55:51;7.57;;;6.28;;
75061;SDS011;63641;46.526;24.612;2023-05-24T04:58:18;6.70;;;6.10;;
75061;SDS011;63641;46.526;24.612;2023-05-24T05:00:45;6.53;;;5.82;;
75061;SDS011;63641;46.526;24.612;2023-05-24T05:03:12;5.35;;;4.85;;
75061;SDS011;63641;46.526;24.612;2023-05-24T05:05:39;6.35;;;5.68;;
75061;SDS011;63641;46.526;24.612;2023-05-24T05:08:06;5.40;;;4.90;;
75061;SDS011;63641;46.526;24.612;2023-05-24T05:10:33;5.30;;;4.70;;
75061;SDS011;63641;46.526;24.612;2023-05-24T05:13:01;6.60;;;4.93;;
75061;SDS011;63641;46.526;24.612;2023-05-24T05:15:27;5.22;;;4.80;;
75061;SDS011;63641;46.526;24.612;2023-05-24T05:17:54;5.88;;;5.10;;
75061;SDS011;63641;46.526;24.612;2023-05-24T05:20:21;5.47;;;4.95;;
75061;SDS011;63641;46.526;24.612;2023-05-24T05:22:50;7.68;;;5.28;;
75061;SDS011;63641;46.526;24.612;2023-05-24T05:25:17;5.68;;;4.78;;
75061;SDS011;63641;46.526;24.612;2023-05-24T05:27:44;8.32;;;5.68;;
75061;SDS011;63641;46.526;24.612;2023-05-24T05:30:11;5.53;;;5.03;;
75061;SDS011;63641;46.526;24.612;2023-05-24T05:32:38;6.35;;;5.00;;
75061;SDS011;63641;46.526;24.612;2023-05-24T05:35:05;5.55;;;5.05;;
75061;SDS011;63641;46.526;24.612;2023-05-24T05:37:32;5.50;;;4.63;;
75061;SDS011;63641;46.526;24.612;2023-05-24T05:39:59;5.90;;;4.80;;
75061;SDS011;63641;46.526;24.612;2023-05-24T05:42:26;5.45;;;4.90;;
75061;SDS011;63641;46.526;24.612;2023-05-24T05:44:52;4.70;;;4.20;;
75061;SDS011;63641;46.526;24.612;2023-05-24T05:47:19;5.55;;;4.63;;
75061;SDS011;63641;46.526;24.612;2023-05-24T05:49:46;4.90;;;4.40;;
75061;SDS011;63641;46.526;24.612;2023-05-24T05:52:13;7.65;;;4.30;;
75061;SDS011;63641;46.526;24.612;2023-05-24T05:54:39;4.78;;;4.22;;
75061;SDS011;63641;46.526;24.612;2023-05-24T05:57:06;5.10;;;4.20;;
75061;SDS011;63641;46.526;24.612;2023-05-24T05:59:35;5.80;;;4.28;;
75061;SDS011;63641;46.526;24.612;2023-05-24T06:02:03;5.15;;;4.63;;
75061;SDS011;63641;46.526;24.612;2023-05-24T06:04:32;5.10;;;4.60;;
75061;SDS011;63641;46.526;24.612;2023-05-24T06:06:59;5.65;;;5.00;;
75061;SDS011;63641;46.526;24.612;2023-05-24T06:09:26;5.68;;;4.75;;
75061;SDS011;63641;46.526;24.612;2023-05-24T06:11:53;6.28;;;4.32;;
75061;SDS011;63641;46.526;24.612;2023-05-24T06:14:20;5.60;;;4.28;;
75061;SDS011;63641;46.526;24.612;2023-05-24T06:16:47;6.47;;;4.10;;
75061;SDS011;63641;46.526;24.612;2023-05-24T06:19:14;4.82;;;4.32;;
75061;SDS011;63641;46.526;24.612;2023-05-24T06:21:42;4.57;;;3.75;;
75061;SDS011;63641;46.526;24.612;2023-05-24T06:24:13;4.50;;;3.90;;
75061;SDS011;63641;46.526;24.612;2023-05-24T06:26:46;4.63;;;4.00;;
75061;SDS011;63641;46.526;24.612;2023-05-24T06:29:13;4.97;;;3.53;;
75061;SDS011;63641;46.526;24.612;2023-05-24T06:31:40;4.15;;;3.75;;
75061;SDS011;63641;46.526;24.612;2023-05-24T06:34:09;5.22;;;4.50;;
75061;SDS011;63641;46.526;24.612;2023-05-24T06:36:35;6.38;;;3.58;;
75061;SDS011;63641;46.526;24.612;2023-05-24T06:39:07;5.72;;;3.25;;
75061;SDS011;63641;46.526;24.612;2023-05-24T06:41:34;3.78;;;3.40;;
75061;SDS011;63641;46.526;24.612;2023-05-24T06:44:02;5.28;;;3.40;;
75061;SDS011;63641;46.526;24.612;2023-05-24T06:46:29;5.95;;;3.45;;
75061;SDS011;63641;46.526;24.612;2023-05-24T06:48:56;4.00;;;3.35;;
75061;SDS011;63641;46.526;24.612;2023-05-24T06:51:23;4.47;;;3.22;;
75061;SDS011;63641;46.526;24.612;2023-05-24T06:53:50;6.05;;;3.80;;
75061;SDS011;63641;46.526;24.612;2023-05-24T06:56:17;3.55;;;3.25;;
75061;SDS011;63641;46.526;24.612;2023-05-24T06:58:44;3.45;;;3.15;;
75061;SDS011;63641;46.526;24.612;2023-05-24T07:01:11;3.10;;;2.80;;
75061;SDS011;63641;46.526;24.612;2023-05-24T07:03:38;3.70;;;3.13;;
75061;SDS011;63641;46.526;24.612;2023-05-24T07:06:05;3.40;;;3.10;;
75061;SDS011;63641;46.526;24.612;2023-05-24T07:08:35;5.93;;;3.17;;
75061;SDS011;63641;46.526;24.612;2023-05-24T07:11:02;3.50;;;3.17;;
75061;SDS011;63641;46.526;24.612;2023-05-24T07:13:29;3.67;;;3.38;;
75061;SDS011;63641;46.526;24.612;2023-05-24T07:15:55;3.15;;;2.85;;
75061;SDS011;63641;46.526;24.612;2023-05-24T07:18:22;4.03;;;3.40;;
75061;SDS011;63641;46.526;24.612;2023-05-24T07:20:49;3.63;;;3.22;;
75061;SDS011;63641;46.526;24.612;2023-05-24T07:23:16;3.72;;;3.00;;
75061;SDS011;63641;46.526;24.612;2023-05-24T07:25:43;4.28;;;2.85;;
75061;SDS011;63641;46.526;24.612;2023-05-24T07:28:10;6.18;;;3.05;;
75061;SDS011;63641;46.526;24.612;2023-05-24T07:30:37;3.33;;;3.03;;
75061;SDS011;63641;46.526;24.612;2023-05-24T07:33:04;5.57;;;2.83;;
75061;SDS011;63641;46.526;24.612;2023-05-24T07:35:31;3.53;;;2.90;;
75061;SDS011;63641;46.526;24.612;2023-05-24T07:37:58;4.63;;;2.90;;
75061;SDS011;63641;46.526;24.612;2023-05-24T07:40:25;3.75;;;2.70;;
75061;SDS011;63641;46.526;24.612;2023-05-24T07:42:54;6.00;;;2.88;;
75061;SDS011;63641;46.526;24.612;2023-05-24T07:45:21;2.83;;;2.60;;
75061;SDS011;63641;46.526;24.612;2023-05-24T07:47:52;5.25;;;2.80;;
75061;SDS011;63641;46.526;24.612;2023-05-24T07:50:22;4.05;;;3.08;;
75061;SDS011;63641;46.526;24.612;2023-05-24T07:52:51;3.88;;;3.00;;
75061;SDS011;63641;46.526;24.612;2023-05-24T07:55:18;4.28;;;3.20;;
75061;SDS011;63641;46.526;24.612;2023-05-24T07:57:45;5.03;;;2.90;;
75061;SDS011;63641;46.526;24.612;2023-05-24T08:00:13;4.45;;;3.10;;
75061;SDS011;63641;46.526;24.612;2023-05-24T08:02:40;3.90;;;2.90;;
75061;SDS011;63641;46.526;24.612;2023-05-24T08:05:10;4.40;;;2.70;;
75061;SDS011;63641;46.526;24.612;2023-05-24T08:07:40;10.57;;;3.30;;
75061;SDS011;63641;46.526;24.612;2023-05-24T08:10:10;3.20;;;2.88;;
75061;SDS011;63641;46.526;24.612;2023-05-24T08:12:40;3.27;;;2.97;;
75061;SDS011;63641;46.526;24.612;2023-05-24T08:15:08;5.50;;;3.05;;
75061;SDS011;63641;46.526;24.612;2023-05-24T08:17:35;3.88;;;2.92;;
75061;SDS011;63641;46.526;24.612;2023-05-24T08:20:04;6.35;;;3.00;;
75061;SDS011;63641;46.526;24.612;2023-05-24T08:22:35;3.60;;;3.00;;
75061;SDS011;63641;46.526;24.612;2023-05-24T08:25:03;5.85;;;3.17;;
75061;SDS011;63641;46.526;24.612;2023-05-24T08:27:30;3.30;;;3.00;;
75061;SDS011;63641;46.526;24.612;2023-05-24T08:29:57;5.97;;;2.90;;
75061;SDS011;63641;46.526;24.612;2023-05-24T08:32:24;5.82;;;2.90;;
75061;SDS011;63641;46.526;24.612;2023-05-24T08:34:51;3.15;;;2.75;;
75061;SDS011;63641;46.526;24.612;2023-05-24T08:37:28;4.03;;;3.00;;
75061;SDS011;63641;46.526;24.612;2023-05-24T08:39:58;6.38;;;3.00;;
75061;SDS011;63641;46.526;24.612;2023-05-24T08:42:25;4.20;;;3.13;;
75061;SDS011;63641;46.526;24.612;2023-05-24T08:44:57;3.92;;;3.03;;
75061;SDS011;63641;46.526;24.612;2023-05-24T08:47:29;3.20;;;2.90;;
75061;SDS011;63641;46.526;24.612;2023-05-24T08:49:57;9.57;;;2.88;;
75061;SDS011;63641;46.526;24.612;2023-05-24T08:52:24;5.43;;;2.58;;
75061;SDS011;63641;46.526;24.612;2023-05-24T08:54:53;3.38;;;2.50;;
75061;SDS011;63641;46.526;24.612;2023-05-24T08:57:20;4.88;;;3.03;;
75061;SDS011;63641;46.526;24.612;2023-05-24T08:59:47;3.90;;;3.10;;
75061;SDS011;63641;46.526;24.612;2023-05-24T09:02:14;6.50;;;2.67;;
75061;SDS011;63641;46.526;24.612;2023-05-24T09:04:42;2.83;;;2.60;;
75061;SDS011;63641;46.526;24.612;2023-05-24T09:07:12;4.90;;;2.67;;
75061;SDS011;63641;46.526;24.612;2023-05-24T09:09:41;2.85;;;2.38;;
75061;SDS011;63641;46.526;24.612;2023-05-24T09:12:16;3.72;;;2.70;;
75061;SDS011;63641;46.526;24.612;2023-05-24T09:15:03;3.83;;;3.53;;
75061;SDS011;63641;46.526;24.612;2023-05-24T09:17:31;2.90;;;2.55;;
75061;SDS011;63641;46.526;24.612;2023-05-24T09:19:59;4.32;;;2.60;;
75061;SDS011;63641;46.526;24.612;2023-05-24T09:22:27;5.20;;;2.58;;
75061;SDS011;63641;46.526;24.612;2023-05-24T09:25:02;4.38;;;2.42;;
75061;SDS011;63641;46.526;24.612;2023-05-24T09:27:31;3.03;;;2.60;;
75061;SDS011;63641;46.526;24.612;2023-05-24T09:30:00;3.97;;;2.38;;
75061;SDS011;63641;46.526;24.612;2023-05-24T09:32:29;4.68;;;2.65;;
75061;SDS011;63641;46.526;24.612;2023-05-24T09:34:57;4.13;;;2.70;;
75061;SDS011;63641;46.526;24.612;2023-05-24T09:37:24;5.70;;;2.70;;
75061;SDS011;63641;46.526;24.612;2023-05-24T09:39:58;4.75;;;2.70;;
75061;SDS011;63641;46.526;24.612;2023-05-24T09:42:26;5.35;;;2.40;;
75061;SDS011;63641;46.526;24.612;2023-05-24T09:45:01;3.10;;;2.28;;
75061;SDS011;63641;46.526;24.612;2023-05-24T09:47:32;4.68;;;2.55;;
75061;SDS011;63641;46.526;24.612;2023-05-24T09:50:04;3.88;;;2.40;;
75061;SDS011;63641;46.526;24.612;2023-05-24T09:52:36;4.00;;;2.42;;
75061;SDS011;63641;46.526;24.612;2023-05-24T09:55:37;3.13;;;2.40;;
75061;SDS011;63641;46.526;24.612;2023-05-24T09:58:04;5.40;;;2.70;;
75061;SDS011;63641;46.526;24.612;2023-05-24T10:00:38;6.07;;;2.63;;
75061;SDS011;63641;46.526;24.612;2023-05-24T10:03:08;4.75;;;2.58;;
75061;SDS011;63641;46.526;24.612;2023-05-24T10:05:41;3.42;;;2.00;;
75061;SDS011;63641;46.526;24.612;2023-05-24T10:08:10;3.38;;;2.67;;
75061;SDS011;63641;46.526;24.612;2023-05-24T10:10:37;2.60;;;2.40;;
75061;SDS011;63641;46.526;24.612;2023-05-24T10:13:04;2.63;;;2.20;;
75061;SDS011;63641;46.526;24.612;2023-05-24T10:15:31;3.53;;;2.60;;
75061;SDS011;63641;46.526;24.612;2023-05-24T10:17:58;3.05;;;2.50;;
75061;SDS011;63641;46.526;24.612;2023-05-24T10:20:27;2.55;;;2.35;;
75061;SDS011;63641;46.526;24.612;2023-05-24T10:22:59;3.05;;;2.13;;
75061;SDS011;63641;46.526;24.612;2023-05-24T10:25:27;2.58;;;2.38;;
75061;SDS011;63641;46.526;24.612;2023-05-24T10:28:01;4.88;;;2.60;;
75061;SDS011;63641;46.526;24.612;2023-05-24T10:33:27;2.85;;;2.20;;
75061;SDS011;63641;46.526;24.612;2023-05-24T10:35:56;2.97;;;2.30;;
75061;SDS011;63641;46.526;24.612;2023-05-24T10:40:54;3.47;;;2.33;;
75061;SDS011;63641;46.526;24.612;2023-05-24T10:43:21;4.35;;;1.95;;
75061;SDS011;63641;46.526;24.612;2023-05-24T10:45:48;5.20;;;2.30;;
75061;SDS011;63641;46.526;24.612;2023-05-24T10:50:59;2.67;;;2.28;;
75061;SDS011;63641;46.526;24.612;2023-05-24T10:53:27;4.40;;;2.20;;
75061;SDS011;63641;46.526;24.612;2023-05-24T10:56:04;3.00;;;1.95;;
75061;SDS011;63641;46.526;24.612;2023-05-24T11:01:26;4.47;;;2.00;;
75061;SDS011;63641;46.526;24.612;2023-05-24T11:04:10;2.67;;;2.22;;
75061;SDS011;63641;46.526;24.612;2023-05-24T11:07:00;4.00;;;1.80;;
75061;SDS011;63641;46.526;24.612;2023-05-24T11:09:29;5.85;;;1.92;;
75061;SDS011;63641;46.526;24.612;2023-05-24T11:12:01;4.03;;;2.10;;
75061;SDS011;63641;46.526;24.612;2023-05-24T11:14:30;3.38;;;2.03;;
75061;SDS011;63641;46.526;24.612;2023-05-24T11:16:57;2.38;;;1.98;;
75061;SDS011;63641;46.526;24.612;2023-05-24T11:19:45;2.20;;;1.85;;
75061;SDS011;63641;46.526;24.612;2023-05-24T11:22:20;2.83;;;2.08;;
75061;SDS011;63641;46.526;24.612;2023-05-24T11:24:48;3.05;;;2.30;;
75061;SDS011;63641;46.526;24.612;2023-05-24T11:27:16;2.30;;;2.10;;
75061;SDS011;63641;46.526;24.612;2023-05-24T11:29:44;2.63;;;2.33;;
75061;SDS011;63641;46.526;24.612;2023-05-24T11:32:16;2.83;;;2.08;;
75061;SDS011;63641;46.526;24.612;2023-05-24T11:34:47;2.90;;;2.33;;
75061;SDS011;63641;46.526;24.612;2023-05-24T11:37:14;2.17;;;1.90;;
75061;SDS011;63641;46.526;24.612;2023-05-24T11:39:47;3.65;;;1.70;;
75061;SDS011;63641;46.526;24.612;2023-05-24T11:42:20;2.83;;;2.08;;
75061;SDS011;63641;46.526;24.612;2023-05-24T11:44:47;6.40;;;2.30;;
75061;SDS011;63641;46.526;24.612;2023-05-24T11:47:15;2.30;;;1.90;;
75061;SDS011;63641;46.526;24.612;2023-05-24T11:49:42;3.65;;;2.38;;
75061;SDS011;63641;46.526;24.612;2023-05-24T11:52:08;2.35;;;1.95;;
75061;SDS011;63641;46.526;24.612;2023-05-24T11:54:35;3.03;;;2.10;;
75061;SDS011;63641;46.526;24.612;2023-05-24T11:57:04;2.65;;;1.83;;
75061;SDS011;63641;46.526;24.612;2023-05-24T11:59:31;3.03;;;2.30;;
75061;SDS011;63641;46.526;24.612;2023-05-24T12:01:59;4.20;;;2.40;;
75061;SDS011;63641;46.526;24.612;2023-05-24T12:04:28;3.20;;;2.20;;
75061;SDS011;63641;46.526;24.612;2023-05-24T12:06:56;2.53;;;2.25;;
75061;SDS011;63641;46.526;24.612;2023-05-24T12:09:23;3.25;;;2.17;;
75061;SDS011;63641;46.526;24.612;2023-05-24T12:11:51;8.63;;;2.28;;
75061;SDS011;63641;46.526;24.612;2023-05-24T12:14:19;2.50;;;1.90;;
75061;SDS011;63641;46.526;24.612;2023-05-24T12:16:49;2.80;;;2.10;;
75061;SDS011;63641;46.526;24.612;2023-05-24T12:19:16;3.70;;;2.05;;
75061;SDS011;63641;46.526;24.612;2023-05-24T12:21:58;3.10;;;2.25;;
75061;SDS011;63641;46.526;24.612;2023-05-24T12:24:25;3.58;;;2.03;;
75061;SDS011;63641;46.526;24.612;2023-05-24T12:26:56;4.78;;;2.00;;
75061;SDS011;63641;46.526;24.612;2023-05-24T12:29:37;4.53;;;2.50;;
75061;SDS011;63641;46.526;24.612;2023-05-24T12:32:06;5.43;;;2.90;;
75061;SDS011;63641;46.526;24.612;2023-05-24T12:34:40;6.43;;;2.58;;
75061;SDS011;63641;46.526;24.612;2023-05-24T12:37:08;4.38;;;2.28;;
75061;SDS011;63641;46.526;24.612;2023-05-24T12:39:40;4.07;;;2.42;;
75061;SDS011;63641;46.526;24.612;2023-05-24T12:42:09;3.78;;;2.40;;
75061;SDS011;63641;46.526;24.612;2023-05-24T12:44:37;2.58;;;1.98;;
75061;SDS011;63641;46.526;24.612;2023-05-24T12:47:05;1.95;;;1.83;;
75061;SDS011;63641;46.526;24.612;2023-05-24T12:49:34;3.27;;;2.00;;
75061;SDS011;63641;46.526;24.612;2023-05-24T12:52:00;2.40;;;1.90;;
75061;SDS011;63641;46.526;24.612;2023-05-24T12:54:27;3.97;;;2.13;;
75061;SDS011;63641;46.526;24.612;2023-05-24T12:56:54;4.00;;;2.63;;
75061;SDS011;63641;46.526;24.612;2023-05-24T12:59:24;3.03;;;2.35;;
75061;SDS011;63641;46.526;24.612;2023-05-24T13:01:52;2.80;;;1.88;;
75061;SDS011;63641;46.526;24.612;2023-05-24T13:04:20;3.38;;;2.15;;
75061;SDS011;63641;46.526;24.612;2023-05-24T13:06:48;2.25;;;1.80;;
75061;SDS011;63641;46.526;24.612;2023-05-24T13:09:15;6.05;;;2.05;;
75061;SDS011;63641;46.526;24.612;2023-05-24T13:14:15;4.05;;;1.80;;
75061;SDS011;63641;46.526;24.612;2023-05-24T13:16:43;3.78;;;1.90;;
75061;SDS011;63641;46.526;24.612;2023-05-24T13:19:10;2.35;;;1.90;;
75061;SDS011;63641;46.526;24.612;2023-05-24T13:21:37;2.22;;;2.00;;
75061;SDS011;63641;46.526;24.612;2023-05-24T13:24:05;5.50;;;2.60;;
75061;SDS011;63641;46.526;24.612;2023-05-24T13:26:32;7.00;;;2.90;;
75061;SDS011;63641;46.526;24.612;2023-05-24T13:29:03;4.97;;;2.90;;
75061;SDS011;63641;46.526;24.612;2023-05-24T13:31:33;6.88;;;3.30;;
75061;SDS011;63641;46.526;24.612;2023-05-24T13:34:03;8.10;;;2.97;;
75061;SDS011;63641;46.526;24.612;2023-05-24T13:36:30;3.85;;;2.70;;
75061;SDS011;63641;46.526;24.612;2023-05-24T13:38:57;5.15;;;2.78;;
75061;SDS011;63641;46.526;24.612;2023-05-24T13:41:39;3.45;;;2.65;;
75061;SDS011;63641;46.526;24.612;2023-05-24T13:44:09;4.63;;;2.50;;
75061;SDS011;63641;46.526;24.612;2023-05-24T13:46:40;2.88;;;2.30;;
75061;SDS011;63641;46.526;24.612;2023-05-24T13:49:07;2.78;;;2.40;;
75061;SDS011;63641;46.526;24.612;2023-05-24T13:51:35;5.32;;;2.90;;
75061;SDS011;63641;46.526;24.612;2023-05-24T13:54:03;3.53;;;2.22;;
75061;SDS011;63641;46.526;24.612;2023-05-24T13:56:32;4.80;;;2.50;;
75061;SDS011;63641;46.526;24.612;2023-05-24T13:59:00;3.08;;;2.58;;
75061;SDS011;63641;46.526;24.612;2023-05-24T14:01:27;2.80;;;2.40;;
75061;SDS011;63641;46.526;24.612;2023-05-24T14:03:54;6.30;;;2.97;;
75061;SDS011;63641;46.526;24.612;2023-05-24T14:06:21;4.63;;;2.67;;
75061;SDS011;63641;46.526;24.612;2023-05-24T14:08:48;3.17;;;2.65;;
75061;SDS011;63641;46.526;24.612;2023-05-24T14:11:15;2.90;;;2.55;;
75061;SDS011;63641;46.526;24.612;2023-05-24T14:13:42;4.57;;;2.55;;
75061;SDS011;63641;46.526;24.612;2023-05-24T14:16:29;4.07;;;2.47;;
75061;SDS011;63641;46.526;24.612;2023-05-24T14:18:56;4.30;;;2.88;;
75061;SDS011;63641;46.526;24.612;2023-05-24T14:21:23;3.65;;;2.80;;
75061;SDS011;63641;46.526;24.612;2023-05-24T14:23:52;3.72;;;3.03;;
75061;SDS011;63641;46.526;24.612;2023-05-24T14:26:19;3.08;;;2.75;;
75061;SDS011;63641;46.526;24.612;2023-05-24T14:28:49;3.42;;;2.58;;
75061;SDS011;63641;46.526;24.612;2023-05-24T14:31:18;3.90;;;2.70;;
75061;SDS011;63641;46.526;24.612;2023-05-24T14:33:45;4.82;;;2.90;;
75061;SDS011;63641;46.526;24.612;2023-05-24T14:36:12;3.65;;;2.58;;
75061;SDS011;63641;46.526;24.612;2023-05-24T14:38:38;4.82;;;2.67;;
75061;SDS011;63641;46.526;24.612;2023-05-24T14:41:05;3.15;;;2.55;;
75061;SDS011;63641;46.526;24.612;2023-05-24T14:43:32;5.10;;;2.60;;
75061;SDS011;63641;46.526;24.612;2023-05-24T14:45:59;4.35;;;2.55;;
75061;SDS011;63641;46.526;24.612;2023-05-24T14:48:25;7.50;;;2.63;;
75061;SDS011;63641;46.526;24.612;2023-05-24T14:50:52;3.33;;;2.40;;
75061;SDS011;63641;46.526;24.612;2023-05-24T14:53:19;6.75;;;2.80;;
75061;SDS011;63641;46.526;24.612;2023-05-24T14:55:46;4.72;;;2.78;;
75061;SDS011;63641;46.526;24.612;2023-05-24T14:58:13;2.63;;;2.30;;
75061;SDS011;63641;46.526;24.612;2023-05-24T15:00:40;2.58;;;2.38;;
75061;SDS011;63641;46.526;24.612;2023-05-24T15:03:14;4.35;;;2.35;;
75061;SDS011;63641;46.526;24.612;2023-05-24T15:05:41;6.63;;;2.28;;